This is the latest recevied weather packets stored in our database for station/object DO7ZT-10. If no packets are shown the sender has not sent any weather packets the latest 10 day(s).
| Time | Temp. | Humidity | Pressure | Rain* | Wind** | Luminosity | Snow |
|---|---|---|---|---|---|---|---|
| 1777510150 | 0° C | 65% | 1030.8 hPa | - | - | - | - |
| 1777509250 | 0° C | 65% | 1030.8 hPa | - | - | - | - |
| 1777508350 | 0.56° C | 65% | 1030.7 hPa | - | - | - | - |
| 1777507450 | 0.56° C | 65% | 1030.7 hPa | - | - | - | - |
| 1777506550 | 0.56° C | 65% | 1030.8 hPa | - | - | - | - |
| 1777505650 | 0.56° C | 66% | 1030.8 hPa | - | - | - | - |
| 1777504750 | 0.56° C | 65% | 1030.8 hPa | - | - | - | - |
| 1777503850 | 1.11° C | 64% | 1031 hPa | - | - | - | - |
| 1777502949 | 0.56° C | 64% | 1030.9 hPa | - | - | - | - |
| 1777502049 | 1.11° C | 64% | 1030.9 hPa | - | - | - | - |
| 1777501149 | 1.11° C | 63% | 1030.9 hPa | - | - | - | - |
| 1777500249 | 1.67° C | 61% | 1030.8 hPa | - | - | - | - |
| 1777499349 | 1.67° C | 63% | 1030.6 hPa | - | - | - | - |
| 1777498449 | 1.67° C | 63% | 1030.6 hPa | - | - | - | - |
| 1777497549 | 1.67° C | 63% | 1030.4 hPa | - | - | - | - |
| 1777496649 | 1.67° C | 61% | 1030.3 hPa | - | - | - | - |
| 1777495749 | 1.67° C | 61% | 1030.3 hPa | - | - | - | - |
| 1777494849 | 2.22° C | 58% | 1030.2 hPa | - | - | - | - |
| 1777493949 | 2.78° C | 59% | 1030 hPa | - | - | - | - |
| 1777493049 | 2.78° C | 55% | 1030.2 hPa | - | - | - | - |
| 1777492149 | 3.33° C | 51% | 1030 hPa | - | - | - | - |
| 1777491249 | 3.89° C | 50% | 1030.1 hPa | - | - | - | - |
| 1777490348 | 4.44° C | 49% | 1030 hPa | - | - | - | - |
| 1777489448 | 6.11° C | 38% | 1029.8 hPa | - | - | - | - |
| 1777488548 | 6.67° C | 41% | 1029.7 hPa | - | - | - | - |
* Rain since midnight (hover to see other rain measurements)
** Current wind speed in m/s (hover to see current wind gust speed)